createdAt,value
2018-05-01T06:45:37.986Z,17.20
2018-05-01T06:48:06.193Z,17.20
2018-05-01T06:50:35.821Z,17.40
2018-05-01T06:53:06.136Z,17.40
2018-05-01T06:55:35.068Z,17.50
2018-05-01T06:58:03.276Z,17.50
2018-05-01T07:00:32.458Z,18.50
2018-05-01T07:03:02.899Z,18.50
2018-05-01T07:05:32.260Z,18.80
2018-05-01T07:08:00.625Z,18.80
2018-05-01T07:10:28.846Z,18.90
2018-05-01T07:12:57.037Z,19.20
2018-05-01T07:15:25.279Z,19.40
2018-05-01T07:17:53.507Z,19.50
2018-05-01T07:20:22.547Z,19.40
2018-05-01T07:22:52.037Z,18.60
2018-05-01T07:25:22.318Z,18.80
2018-05-01T07:27:51.115Z,18.80
2018-05-01T07:30:19.350Z,19.00
2018-05-01T07:32:47.645Z,19.10
2018-05-01T07:35:15.906Z,19.70
2018-05-01T07:37:45.399Z,19.70
2018-05-01T07:40:16.190Z,20.40
2018-05-01T07:45:42.707Z,19.90
2018-05-01T07:48:10.898Z,19.90
2018-05-01T07:50:39.104Z,20.30
2018-05-01T07:53:08.632Z,20.30
2018-05-01T07:55:36.853Z,20.30
2018-05-01T07:58:05.852Z,20.30
2018-05-01T08:00:34.191Z,20.30
2018-05-01T08:03:02.369Z,20.70
2018-05-01T08:05:30.577Z,20.70
2018-05-01T08:07:58.797Z,21.00
2018-05-01T08:10:27.896Z,20.80
2018-05-01T08:12:56.870Z,20.60
2018-05-01T08:15:25.113Z,20.60
2018-05-01T08:17:53.349Z,20.50
2018-05-01T08:20:21.574Z,20.60
2018-05-01T08:22:49.825Z,21.10
2018-05-01T08:25:18.065Z,20.60
2018-05-01T08:27:46.568Z,20.90
2018-05-01T08:30:14.919Z,20.60
2018-05-01T08:32:43.962Z,21.00
2018-05-01T08:35:12.264Z,21.00
2018-05-01T08:37:40.546Z,20.80
2018-05-01T08:40:08.921Z,21.20
2018-05-01T08:42:37.189Z,21.20
2018-05-01T08:45:06.341Z,21.50
2018-05-01T08:47:34.610Z,21.30
2018-05-01T08:50:02.848Z,21.50
2018-05-01T08:52:31.081Z,21.50
2018-05-01T08:54:59.303Z,21.50
2018-05-01T08:57:27.642Z,20.90
2018-05-01T08:59:55.916Z,20.70
2018-05-01T09:02:24.136Z,21.10
2018-05-01T09:04:52.432Z,21.50
2018-05-01T09:07:21.395Z,21.70
2018-05-01T09:09:50.432Z,21.50
2018-05-01T09:12:19.538Z,21.60
2018-05-01T09:14:47.793Z,21.60
2018-05-01T09:17:16.758Z,21.50
2018-05-01T09:19:45.374Z,21.50
2018-05-01T09:22:13.667Z,22.00
2018-05-01T09:24:42.812Z,21.60
2018-05-01T09:27:11.051Z,21.60
2018-05-01T09:29:39.288Z,21.40
2018-05-01T09:32:08.257Z,21.90
2018-05-01T09:34:37.110Z,21.90
2018-05-01T09:37:05.319Z,22.10
2018-05-01T09:39:33.493Z,21.90
2018-05-01T09:42:01.734Z,22.20
2018-05-01T09:44:31.889Z,22.30
2018-05-01T09:47:00.270Z,22.30
2018-05-01T09:49:28.646Z,21.70
2018-05-01T09:51:56.928Z,21.80
2018-05-01T09:54:25.927Z,22.40
2018-05-01T09:56:54.702Z,22.40
2018-05-01T09:59:25.065Z,22.60
2018-05-01T10:01:53.903Z,22.60
2018-05-01T10:04:23.392Z,22.70
2018-05-01T10:06:52.277Z,22.70
2018-05-01T10:09:34.648Z,22.50
2018-05-01T10:12:03.487Z,23.30
2018-05-01T10:14:32.383Z,23.10
2018-05-01T10:17:01.166Z,23.20
2018-05-01T10:19:31.079Z,23.00
2018-05-01T10:21:59.926Z,23.50
2018-05-01T10:24:29.540Z,22.70
2018-05-01T10:26:59.201Z,22.70
2018-05-01T10:29:27.940Z,22.90
2018-05-01T10:31:56.685Z,22.40
2018-05-01T10:34:25.523Z,22.70
2018-05-01T10:36:55.029Z,23.50
2018-05-01T10:39:23.770Z,23.50
2018-05-01T10:41:52.641Z,23.50
2018-05-01T10:44:21.479Z,23.50
2018-05-01T10:46:50.683Z,23.70
2018-05-01T10:49:19.637Z,23.80
2018-05-01T10:51:48.329Z,24.20
2018-05-01T10:54:17.132Z,23.90
2018-05-01T10:56:46.005Z,23.80
2018-05-01T10:59:14.774Z,23.70
2018-05-01T11:01:43.668Z,24.00
2018-05-01T11:04:12.512Z,23.80
2018-05-01T11:06:41.398Z,24.10
2018-05-01T11:09:11.058Z,23.80
2018-05-01T11:11:39.901Z,23.80
2018-05-01T11:14:08.730Z,23.30
2018-05-01T11:16:37.558Z,23.40
2018-05-01T11:19:06.415Z,22.90
2018-05-01T11:21:35.555Z,22.30
2018-05-01T11:24:04.533Z,22.60
2018-05-01T11:26:33.389Z,23.10
2018-05-01T11:29:02.179Z,23.30
2018-05-01T11:31:31.723Z,23.30
2018-05-01T11:34:01.265Z,23.30
2018-05-01T11:36:30.790Z,23.60
2018-05-01T11:39:00.378Z,23.90
2018-05-01T11:41:29.181Z,23.90
2018-05-01T11:43:57.955Z,23.70
2018-05-01T11:46:26.788Z,23.50
2018-05-01T11:48:56.163Z,23.10
2018-05-01T11:51:25.733Z,22.60
2018-05-01T11:53:54.556Z,22.60
2018-05-01T11:56:23.461Z,23.20
2018-05-01T11:58:52.210Z,23.40
2018-05-01T12:01:21.014Z,23.30
2018-05-01T12:03:49.948Z,23.20
2018-05-01T12:06:18.782Z,23.80
2018-05-01T12:08:47.845Z,23.50
2018-05-01T12:11:16.669Z,23.30
2018-05-01T12:13:45.537Z,23.60
2018-05-01T12:16:14.566Z,24.60
2018-05-01T12:18:43.306Z,24.60
2018-05-01T12:21:12.123Z,24.60
2018-05-01T12:23:41.128Z,24.60
2018-05-01T12:26:10.351Z,24.60
2018-05-01T12:28:41.658Z,24.50
2018-05-01T12:31:11.237Z,24.50
2018-05-01T12:33:40.366Z,23.80
2018-05-01T12:36:09.223Z,23.90
2018-05-01T12:38:37.984Z,23.90
2018-05-01T12:41:07.034Z,23.40
2018-05-01T12:43:37.338Z,23.30
2018-05-01T12:46:06.141Z,23.40
2018-05-01T12:48:34.972Z,23.60
2018-05-01T12:51:03.784Z,23.60
2018-05-01T12:53:32.586Z,23.80
2018-05-01T12:56:03.622Z,23.80
2018-05-01T12:58:32.440Z,23.80
2018-05-01T13:01:01.217Z,23.70
2018-05-01T13:03:30.089Z,23.40
2018-05-01T13:06:00.502Z,24.20
2018-05-01T13:08:29.219Z,24.30
2018-05-01T13:10:59.365Z,24.50
2018-05-01T13:13:29.847Z,24.30
2018-05-01T13:15:59.604Z,24.70
2018-05-01T13:18:28.451Z,25.00
2018-05-01T13:20:58.355Z,24.00
2018-05-01T13:23:27.890Z,24.70
2018-05-01T13:25:56.710Z,24.70
2018-05-01T13:28:26.365Z,25.00
2018-05-01T13:30:55.979Z,25.10
2018-05-01T13:33:26.069Z,24.70
2018-05-01T13:35:56.336Z,24.60
2018-05-01T13:38:25.112Z,24.30
2018-05-01T13:40:55.279Z,23.80
2018-05-01T13:43:24.966Z,23.70
2018-05-01T13:45:54.337Z,24.10
2018-05-01T13:48:23.873Z,23.70
2018-05-01T13:50:53.441Z,23.70
2018-05-01T13:53:23.038Z,23.40
2018-05-01T13:55:51.819Z,23.30
2018-05-01T13:58:20.611Z,23.40
2018-05-01T14:00:49.338Z,23.60
2018-05-01T14:03:18.116Z,23.40
2018-05-01T14:05:48.088Z,23.50
2018-05-01T14:08:16.850Z,23.30
2018-05-01T14:10:46.184Z,23.50
2018-05-01T14:13:15.150Z,23.90
2018-05-01T14:15:43.954Z,24.00
2018-05-01T14:18:13.009Z,23.80
2018-05-01T14:20:44.353Z,23.80
2018-05-01T14:23:13.147Z,24.20
2018-05-01T14:25:42.810Z,24.00
2018-05-01T14:28:12.723Z,24.40
2018-05-01T14:30:41.873Z,24.40
2018-05-01T14:33:10.635Z,24.70
2018-05-01T14:35:40.218Z,24.20
2018-05-01T14:38:08.985Z,24.20
2018-05-01T14:40:37.795Z,24.40
2018-05-01T14:43:59.994Z,24.20
2018-05-01T14:54:02.926Z,23.50
2018-05-01T15:01:36.027Z,24.10
2018-05-01T15:11:40.545Z,23.60
2018-05-01T15:16:41.832Z,23.50
2018-05-01T15:19:13.731Z,23.60
2018-05-01T15:26:46.492Z,22.80
2018-05-01T15:39:22.909Z,24.20
2018-05-01T15:41:54.054Z,24.00
2018-05-01T15:44:25.294Z,23.90
2018-05-01T15:46:55.921Z,23.50
2018-05-01T15:49:27.373Z,23.30
2018-05-01T16:07:04.569Z,22.60
2018-05-01T16:24:41.529Z,22.50
2018-05-01T16:29:45.050Z,22.10
2018-05-01T16:34:46.448Z,21.90
2018-05-01T16:42:19.010Z,22.40
2018-05-01T16:49:52.016Z,22.00
2018-05-01T18:33:25.526Z,20.30
2018-05-01T18:38:27.868Z,20.10
2018-05-01T19:18:41.600Z,19.50
2018-05-01T19:26:14.793Z,19.40
2018-05-01T19:31:18.227Z,19.70
2018-05-01T19:48:54.878Z,19.60
2018-05-01T20:16:33.952Z,18.60
2018-05-01T20:24:06.434Z,18.60
2018-05-01T20:31:39.042Z,19.00
2018-05-01T20:56:49.198Z,18.60
2018-05-01T20:59:20.638Z,18.70
2018-05-01T21:16:55.368Z,18.70
2018-05-01T21:39:32.458Z,18.60
2018-05-01T22:14:42.189Z,18.50
2018-05-01T22:37:20.948Z,17.10
2018-05-01T22:44:53.595Z,17.70
2018-05-01T23:04:58.713Z,17.10
2018-05-01T23:07:30.199Z,17.10
2018-05-01T23:20:03.563Z,16.90
2018-05-01T23:22:35.955Z,16.90
2018-05-01T23:25:06.433Z,16.90
2018-05-01T23:32:38.859Z,17.20
2018-05-01T23:42:41.710Z,17.50
2018-05-01T23:45:12.116Z,17.10
2018-05-01T23:55:15.473Z,17.20
